Anzahl Datensätze: 144
min. Temperatur: 0.2 °C
max. Temperatur: 12.8 °C
max. Windgeschwindigkeit: 12.6 km/h
Niederschlagsumme: 0.0 mm
| Datum |
Zeit |
Temp °C |
Feuchte % |
Taupunkt °C |
Luftdruck hPa |
Wind km/h |
Windrichtung |
Strahlung w/m² |
Niederschlag mm |
|---|---|---|---|---|---|---|---|---|---|
| 13.03.2026 | 00:01 | 3.0 | 80 | -0.1 | 1021.7 | 1.1 | N | 0 | 0.0 |
| 13.03.2026 | 00:11 | 3.4 | 78 | 0.0 | 1021.5 | 1.4 | N | 0 | 0.0 |
| 13.03.2026 | 00:21 | 3.2 | 79 | -0.2 | 1021.4 | 1.8 | N | 0 | 0.0 |
| 13.03.2026 | 00:31 | 3.3 | 78 | -0.2 | 1021.3 | 1.8 | NNO | 0 | 0.0 |
| 13.03.2026 | 00:41 | 3.4 | 78 | -0.2 | 1021.2 | 1.1 | SSO | 0 | 0.0 |
| 13.03.2026 | 00:51 | 2.6 | 81 | -0.3 | 1021.2 | 2.9 | NO | 0 | 0.0 |
| 13.03.2026 | 01:01 | 2.6 | 80 | -0.5 | 1021.1 | 2.2 | NO | 0 | 0.0 |
| 13.03.2026 | 01:11 | 3.0 | 79 | -0.3 | 1020.8 | 1.4 | NNO | 0 | 0.0 |
| 13.03.2026 | 01:21 | 2.6 | 80 | -0.6 | 1020.9 | 1.4 | NNO | 0 | 0.0 |
| 13.03.2026 | 01:31 | 2.5 | 79 | -0.8 | 1020.9 | 1.1 | NNO | 0 | 0.0 |
| 13.03.2026 | 01:41 | 2.5 | 81 | -0.5 | 1020.8 | 1.1 | NO | 0 | 0.0 |
| 13.03.2026 | 01:51 | 2.6 | 79 | -0.7 | 1020.7 | 1.8 | NNO | 0 | 0.0 |
| 13.03.2026 | 02:01 | 2.2 | 81 | -0.8 | 1020.6 | 1.1 | NNO | 0 | 0.0 |
| 13.03.2026 | 02:11 | 2.1 | 81 | -0.9 | 1020.5 | 2.5 | N | 0 | 0.0 |
| 13.03.2026 | 02:22 | 2.4 | 81 | -0.5 | 1020.4 | 1.8 | SSO | 0 | 0.0 |
| 13.03.2026 | 02:32 | 2.1 | 83 | -0.6 | 1020.4 | 1.8 | NO | 0 | 0.0 |
| 13.03.2026 | 02:42 | 2.1 | 84 | -0.4 | 1020.4 | 1.1 | SO | 0 | 0.0 |
| 13.03.2026 | 02:52 | 1.6 | 85 | -0.6 | 1020.4 | 1.8 | NNW | 0 | 0.0 |
| 13.03.2026 | 03:02 | 1.3 | 85 | -0.9 | 1020.4 | 2.5 | NNO | 0 | 0.0 |
| 13.03.2026 | 03:12 | 1.8 | 82 | -0.9 | 1020.2 | 0.4 | N | 0 | 0.0 |
| 13.03.2026 | 03:22 | 1.7 | 81 | -1.2 | 1019.9 | 1.4 | N | 0 | 0.0 |
| 13.03.2026 | 03:32 | 1.4 | 83 | -1.2 | 1019.9 | 0.7 | N | 0 | 0.0 |
| 13.03.2026 | 03:42 | 1.6 | 81 | -1.2 | 1019.8 | 2.9 | S | 0 | 0.0 |
| 13.03.2026 | 03:52 | 1.2 | 84 | -1.2 | 1019.9 | 0.4 | N | 0 | 0.0 |
| 13.03.2026 | 04:02 | 1.4 | 83 | -1.2 | 1019.7 | 1.4 | N | 0 | 0.0 |
| 13.03.2026 | 04:12 | 1.0 | 83 | -1.6 | 1019.9 | 1.4 | N | 0 | 0.0 |
| 13.03.2026 | 04:22 | 1.2 | 80 | -1.8 | 1019.9 | 1.1 | NNO | 0 | 0.0 |
| 13.03.2026 | 04:32 | 1.3 | 81 | -1.6 | 1019.9 | 1.1 | ONO | 0 | 0.0 |
| 13.03.2026 | 04:42 | 1.0 | 82 | -1.6 | 1019.8 | 0.7 | N | 0 | 0.0 |
| 13.03.2026 | 04:52 | 0.8 | 85 | -1.5 | 1019.7 | 1.4 | O | 0 | 0.0 |
| 13.03.2026 | 05:02 | 0.8 | 85 | -1.5 | 1019.7 | 2.2 | NO | 0 | 0.0 |
| 13.03.2026 | 05:12 | 0.6 | 85 | -1.7 | 1019.7 | 0.7 | N | 0 | 0.0 |
| 13.03.2026 | 05:22 | 0.9 | 82 | -1.9 | 1019.7 | 1.4 | ONO | 0 | 0.0 |
| 13.03.2026 | 05:32 | 0.6 | 82 | -2.0 | 1019.6 | 1.4 | NNO | 0 | 0.0 |
| 13.03.2026 | 05:42 | 0.9 | 83 | -1.7 | 1019.5 | 1.4 | N | 0 | 0.0 |
| 13.03.2026 | 05:52 | 0.6 | 85 | -1.6 | 1019.5 | 1.1 | N | 0 | 0.0 |
| 13.03.2026 | 06:02 | 0.5 | 84 | -1.9 | 1019.3 | 0.4 | N | 0 | 0.0 |
| 13.03.2026 | 06:12 | 0.4 | 83 | -2.2 | 1019.3 | 1.4 | NNO | 0 | 0.0 |
| 13.03.2026 | 06:22 | 0.7 | 82 | -2.0 | 1019.4 | 1.8 | NNO | 0 | 0.0 |
| 13.03.2026 | 06:32 | 0.5 | 83 | -2.1 | 1019.6 | 1.1 | NNO | 0 | 0.0 |
| 13.03.2026 | 06:42 | 0.7 | 85 | -1.7 | 1019.6 | 1.4 | N | 2 | 0.0 |
| 13.03.2026 | 06:52 | 0.3 | 84 | -2.2 | 1019.7 | 1.1 | NNO | 5 | 0.0 |
| 13.03.2026 | 07:02 | 0.2 | 82 | -2.5 | 1019.8 | 1.4 | NNO | 9 | 0.0 |
| 13.03.2026 | 07:12 | 0.6 | 82 | -2.1 | 1019.6 | 0.7 | N | 12 | 0.0 |
| 13.03.2026 | 07:22 | 0.6 | 80 | -2.5 | 1019.7 | 1.8 | NNW | 17 | 0.0 |
| 13.03.2026 | 07:32 | 0.6 | 82 | -2.0 | 1019.7 | 0.7 | N | 20 | 0.0 |
| 13.03.2026 | 07:43 | 0.5 | 83 | -2.0 | 1019.7 | 2.2 | N | 22 | 0.0 |
| 13.03.2026 | 07:53 | 1.0 | 82 | -1.7 | 1019.5 | 0.4 | N | 25 | 0.0 |
| 13.03.2026 | 08:03 | 1.6 | 82 | -1.1 | 1019.4 | 1.1 | N | 27 | 0.0 |
| 13.03.2026 | 08:13 | 1.2 | 82 | -1.6 | 1019.3 | 9.0 | S | 29 | 0.0 |
| 13.03.2026 | 08:23 | 1.2 | 82 | -1.5 | 1019.3 | 2.9 | S | 30 | 0.0 |
| 13.03.2026 | 08:33 | 1.7 | 78 | -1.8 | 1019.1 | 5.4 | S | 44 | 0.0 |
| 13.03.2026 | 08:43 | 3.1 | 73 | -1.2 | 1018.6 | 4.0 | S | 204 | 0.0 |
| 13.03.2026 | 08:53 | 3.7 | 70 | -1.3 | 1018.3 | 1.8 | N | 224 | 0.0 |
| 13.03.2026 | 09:03 | 4.0 | 66 | -1.8 | 1017.9 | 4.3 | S | 38 | 0.0 |
| 13.03.2026 | 09:13 | 4.6 | 63 | -2.0 | 1017.6 | 6.8 | S | 261 | 0.0 |
| 13.03.2026 | 09:23 | 4.5 | 64 | -1.6 | 1017.4 | 4.7 | S | 279 | 0.0 |
| 13.03.2026 | 09:33 | 4.6 | 63 | -1.8 | 1017.2 | 5.4 | S | 296 | 0.0 |
| 13.03.2026 | 09:43 | 4.2 | 66 | -1.7 | 1017.2 | 5.0 | S | 313 | 0.0 |
| 13.03.2026 | 09:53 | 4.9 | 64 | -1.4 | 1016.9 | 5.4 | SSW | 330 | 0.0 |
| 13.03.2026 | 10:03 | 4.9 | 64 | -1.3 | 1016.7 | 1.1 | N | 346 | 0.0 |
| 13.03.2026 | 10:13 | 5.8 | 62 | -0.9 | 1016.0 | 2.2 | SSW | 362 | 0.0 |
| 13.03.2026 | 10:23 | 5.0 | 63 | -1.4 | 1015.9 | 5.4 | SSW | 376 | 0.0 |
| 13.03.2026 | 10:33 | 5.1 | 64 | -1.1 | 1015.9 | 7.2 | SSW | 390 | 0.0 |
| 13.03.2026 | 10:43 | 5.1 | 67 | -0.5 | 1015.9 | 4.7 | S | 404 | 0.0 |
| 13.03.2026 | 10:53 | 6.5 | 66 | 0.5 | 1015.4 | 5.8 | S | 416 | 0.0 |
| 13.03.2026 | 11:03 | 7.3 | 63 | 0.7 | 1015.0 | 3.6 | WSW | 430 | 0.0 |
| 13.03.2026 | 11:13 | 7.3 | 61 | 0.2 | 1014.8 | 4.0 | WSW | 430 | 0.0 |
| 13.03.2026 | 11:23 | 6.4 | 61 | -0.6 | 1014.9 | 7.2 | S | 446 | 0.0 |
| 13.03.2026 | 11:33 | 7.7 | 58 | -0.1 | 1014.7 | 4.7 | SSW | 453 | 0.0 |
| 13.03.2026 | 11:43 | 7.2 | 61 | 0.3 | 1014.6 | 2.5 | WSW | 460 | 0.0 |
| 13.03.2026 | 11:53 | 8.7 | 50 | -1.1 | 1013.9 | 2.9 | WSW | 466 | 0.0 |
| 13.03.2026 | 12:03 | 9.7 | 49 | -0.6 | 1013.5 | 3.2 | SSW | 472 | 0.0 |
| 13.03.2026 | 12:13 | 8.1 | 54 | -0.6 | 1013.6 | 6.8 | SSW | 476 | 0.0 |
| 13.03.2026 | 12:23 | 8.6 | 58 | 0.8 | 1013.5 | 2.5 | WSW | 479 | 0.0 |
| 13.03.2026 | 12:33 | 9.0 | 55 | 0.6 | 1013.0 | 5.0 | SW | 484 | 0.0 |
| 13.03.2026 | 12:44 | 9.4 | 52 | 0.0 | 1012.6 | 4.0 | SSW | 492 | 0.0 |
| 13.03.2026 | 12:54 | 8.0 | 60 | 0.8 | 1013.0 | 4.3 | SSW | 438 | 0.0 |
| 13.03.2026 | 13:04 | 10.7 | 47 | -0.2 | 1012.1 | 2.5 | SW | 491 | 0.0 |
| 13.03.2026 | 13:14 | 11.9 | 42 | -0.7 | 1011.6 | 2.5 | WSW | 459 | 0.0 |
| 13.03.2026 | 13:24 | 11.9 | 41 | -0.9 | 1011.2 | 2.9 | WSW | 503 | 0.0 |
| 13.03.2026 | 13:34 | 12.8 | 40 | -0.4 | 1010.9 | 3.2 | W | 490 | 0.0 |
| 13.03.2026 | 13:44 | 9.7 | 57 | 1.5 | 1011.3 | 8.6 | SSW | 474 | 0.0 |
| 13.03.2026 | 13:54 | 10.5 | 54 | 1.6 | 1010.9 | 3.6 | SW | 461 | 0.0 |
| 13.03.2026 | 14:04 | 11.9 | 48 | 1.2 | 1010.7 | 2.2 | N | 170 | 0.0 |
| 13.03.2026 | 14:14 | 11.6 | 43 | -0.7 | 1010.5 | 2.2 | SW | 435 | 0.0 |
| 13.03.2026 | 14:24 | 12.0 | 41 | -0.9 | 1010.2 | 2.2 | WSW | 403 | 0.0 |
| 13.03.2026 | 14:34 | 12.2 | 43 | -0.1 | 1009.9 | 3.2 | S | 303 | 0.0 |
| 13.03.2026 | 14:44 | 12.2 | 40 | -1.0 | 1009.8 | 4.7 | SW | 499 | 0.0 |
| 13.03.2026 | 14:54 | 10.6 | 49 | 0.3 | 1009.9 | 2.5 | SSW | 249 | 0.0 |
| 13.03.2026 | 15:04 | 10.7 | 48 | 0.1 | 1009.8 | 4.3 | SSW | 316 | 0.0 |
| 13.03.2026 | 15:14 | 10.8 | 44 | -0.9 | 1009.6 | 4.3 | SSW | 258 | 0.0 |
| 13.03.2026 | 15:24 | 12.0 | 46 | 0.8 | 1009.3 | 3.2 | SSW | 172 | 0.0 |
| 13.03.2026 | 15:34 | 10.0 | 48 | -0.4 | 1009.5 | 3.6 | S | 161 | 0.0 |
| 13.03.2026 | 15:44 | 9.9 | 48 | -0.6 | 1009.5 | 2.2 | SSW | 282 | 0.0 |
| 13.03.2026 | 15:54 | 11.1 | 44 | -0.6 | 1008.9 | 2.2 | SSW | 289 | 0.0 |
| 13.03.2026 | 16:04 | 11.5 | 38 | -2.4 | 1008.8 | 4.3 | S | 204 | 0.0 |
| 13.03.2026 | 16:14 | 11.9 | 40 | -1.2 | 1008.5 | 1.4 | SW | 231 | 0.0 |
| 13.03.2026 | 16:24 | 11.2 | 44 | -0.5 | 1008.5 | 4.3 | S | 148 | 0.0 |
| 13.03.2026 | 16:34 | 11.5 | 40 | -1.7 | 1008.3 | 3.6 | S | 137 | 0.0 |
| 13.03.2026 | 16:44 | 12.0 | 38 | -2.0 | 1008.0 | 2.2 | S | 82 | 0.0 |
| 13.03.2026 | 16:54 | 11.4 | 42 | -1.2 | 1007.9 | 2.5 | S | 64 | 0.0 |
| 13.03.2026 | 17:04 | 11.2 | 44 | -0.6 | 1007.8 | 1.8 | S | 52 | 0.0 |
| 13.03.2026 | 17:14 | 11.4 | 42 | -0.9 | 1007.6 | 2.9 | S | 53 | 0.0 |
| 13.03.2026 | 17:24 | 11.5 | 44 | -0.3 | 1007.4 | 1.4 | N | 48 | 0.0 |
| 13.03.2026 | 17:34 | 11.4 | 44 | -0.4 | 1007.2 | 3.2 | S | 36 | 0.0 |
| 13.03.2026 | 17:44 | 10.9 | 46 | -0.4 | 1007.3 | 3.6 | S | 32 | 0.0 |
| 13.03.2026 | 17:55 | 10.4 | 50 | 0.4 | 1007.4 | 1.1 | N | 24 | 0.0 |
| 13.03.2026 | 18:05 | 10.4 | 51 | 0.8 | 1007.4 | 0.4 | N | 13 | 0.0 |
| 13.03.2026 | 18:15 | 10.3 | 52 | 1.0 | 1007.3 | 1.4 | WSW | 6 | 0.0 |
| 13.03.2026 | 18:25 | 9.2 | 61 | 2.1 | 1007.5 | 0.7 | S | 3 | 0.0 |
| 13.03.2026 | 18:35 | 9.2 | 62 | 2.3 | 1007.3 | 2.9 | S | 0 | 0.0 |
| 13.03.2026 | 18:45 | 8.9 | 62 | 2.1 | 1007.4 | 0.7 | S | 0 | 0.0 |
| 13.03.2026 | 18:55 | 9.0 | 61 | 2.0 | 1007.3 | 1.8 | SSW | 0 | 0.0 |
| 13.03.2026 | 19:05 | 8.8 | 61 | 1.7 | 1007.4 | 0.7 | N | 0 | 0.0 |
| 13.03.2026 | 19:15 | 8.5 | 67 | 2.7 | 1007.2 | 0.4 | N | 0 | 0.0 |
| 13.03.2026 | 19:25 | 8.5 | 60 | 1.2 | 1007.1 | 1.8 | NNO | 0 | 0.0 |
| 13.03.2026 | 19:35 | 8.2 | 67 | 2.3 | 1007.1 | 0.4 | N | 0 | 0.0 |
| 13.03.2026 | 19:45 | 7.9 | 67 | 2.1 | 1007.0 | 1.1 | N | 0 | 0.0 |
| 13.03.2026 | 19:55 | 8.0 | 64 | 1.6 | 1006.8 | 0.4 | N | 0 | 0.0 |
| 13.03.2026 | 20:05 | 7.5 | 70 | 2.3 | 1006.7 | 1.1 | N | 0 | 0.0 |
| 13.03.2026 | 20:15 | 7.4 | 71 | 2.4 | 1006.7 | 1.8 | SSW | 0 | 0.0 |
| 13.03.2026 | 20:25 | 7.1 | 70 | 2.0 | 1006.7 | 2.5 | NO | 0 | 0.0 |
| 13.03.2026 | 20:35 | 6.9 | 74 | 2.6 | 1006.6 | 1.1 | N | 0 | 0.0 |
| 13.03.2026 | 20:45 | 6.9 | 76 | 3.0 | 1006.4 | 1.1 | SSW | 0 | 0.0 |
| 13.03.2026 | 20:55 | 6.9 | 77 | 3.0 | 1006.3 | 2.2 | NNO | 0 | 0.0 |
| 13.03.2026 | 21:05 | 7.0 | 70 | 1.9 | 1006.2 | 2.9 | SSW | 0 | 0.0 |
| 13.03.2026 | 21:15 | 7.1 | 69 | 1.7 | 1006.1 | 4.0 | NO | 0 | 0.0 |
| 13.03.2026 | 21:25 | 7.6 | 63 | 1.0 | 1005.9 | 3.2 | S | 0 | 0.0 |
| 13.03.2026 | 21:35 | 6.8 | 72 | 2.1 | 1006.0 | 2.5 | NNO | 0 | 0.0 |
| 13.03.2026 | 21:45 | 6.9 | 70 | 1.7 | 1005.8 | 1.8 | SSW | 0 | 0.0 |
| 13.03.2026 | 21:55 | 6.7 | 68 | 1.2 | 1005.6 | 2.5 | NO | 0 | 0.0 |
| 13.03.2026 | 22:05 | 6.6 | 69 | 1.4 | 1005.3 | 2.9 | NNO | 0 | 0.0 |
| 13.03.2026 | 22:15 | 6.4 | 75 | 2.3 | 1005.2 | 2.5 | S | 0 | 0.0 |
| 13.03.2026 | 22:25 | 6.4 | 68 | 0.8 | 1005.0 | 0.0 | N | 0 | 0.0 |
| 13.03.2026 | 22:35 | 6.3 | 76 | 2.4 | 1005.0 | 1.8 | SW | 0 | 0.0 |
| 13.03.2026 | 22:45 | 6.2 | 76 | 2.3 | 1004.8 | 2.2 | NNO | 0 | 0.0 |
| 13.03.2026 | 22:55 | 6.1 | 79 | 2.8 | 1004.7 | 4.3 | N | 0 | 0.0 |
| 13.03.2026 | 23:05 | 6.2 | 73 | 1.8 | 1004.5 | 2.5 | N | 0 | 0.0 |
| 13.03.2026 | 23:16 | 6.5 | 72 | 1.8 | 1004.2 | 1.1 | N | 0 | 0.0 |
| 13.03.2026 | 23:26 | 6.3 | 74 | 2.0 | 1004.2 | 1.8 | N | 0 | 0.0 |
| 13.03.2026 | 23:36 | 6.6 | 74 | 2.2 | 1004.0 | 1.4 | S | 0 | 0.0 |
| 13.03.2026 | 23:46 | 6.5 | 74 | 2.2 | 1003.8 | 4.7 | S | 0 | 0.0 |
| 13.03.2026 | 23:56 | 6.2 | 72 | 1.5 | 1003.7 | 1.4 | ONO | 0 | 0.0 |